sensor_id;sensor_type;location;lat;lon;timestamp;P1;durP1;ratioP1;P2;durP2;ratioP2
7761;SDS011;3925;48.636;9.516;2023-05-14T00:01:12;9.50;;;8.70;;
7761;SDS011;3925;48.636;9.516;2023-05-14T00:03:39;9.60;;;8.80;;
7761;SDS011;3925;48.636;9.516;2023-05-14T00:06:06;8.90;;;8.10;;
7761;SDS011;3925;48.636;9.516;2023-05-14T00:08:34;8.00;;;7.30;;
7761;SDS011;3925;48.636;9.516;2023-05-14T00:11:01;8.77;;;7.87;;
7761;SDS011;3925;48.636;9.516;2023-05-14T00:13:28;8.93;;;8.10;;
7761;SDS011;3925;48.636;9.516;2023-05-14T00:15:55;9.30;;;8.30;;
7761;SDS011;3925;48.636;9.516;2023-05-14T00:18:22;8.70;;;8.00;;
7761;SDS011;3925;48.636;9.516;2023-05-14T00:20:49;8.20;;;7.50;;
7761;SDS011;3925;48.636;9.516;2023-05-14T00:23:18;12.03;;;8.60;;
7761;SDS011;3925;48.636;9.516;2023-05-14T00:25:48;9.17;;;8.30;;
7761;SDS011;3925;48.636;9.516;2023-05-14T00:28:15;9.03;;;8.27;;
7761;SDS011;3925;48.636;9.516;2023-05-14T00:30:42;10.57;;;9.67;;
7761;SDS011;3925;48.636;9.516;2023-05-14T00:33:09;9.53;;;8.73;;
7761;SDS011;3925;48.636;9.516;2023-05-14T00:35:36;9.90;;;9.10;;
7761;SDS011;3925;48.636;9.516;2023-05-14T00:38:03;8.50;;;7.70;;
7761;SDS011;3925;48.636;9.516;2023-05-14T00:40:30;10.63;;;9.73;;
7761;SDS011;3925;48.636;9.516;2023-05-14T00:42:59;10.70;;;9.80;;
7761;SDS011;3925;48.636;9.516;2023-05-14T00:45:26;10.07;;;9.17;;
7761;SDS011;3925;48.636;9.516;2023-05-14T00:47:53;10.23;;;9.43;;
7761;SDS011;3925;48.636;9.516;2023-05-14T00:50:20;11.07;;;10.17;;
7761;SDS011;3925;48.636;9.516;2023-05-14T00:52:48;10.70;;;9.80;;
7761;SDS011;3925;48.636;9.516;2023-05-14T00:55:15;9.77;;;8.97;;
7761;SDS011;3925;48.636;9.516;2023-05-14T00:57:42;9.50;;;8.70;;
7761;SDS011;3925;48.636;9.516;2023-05-14T01:00:11;9.80;;;9.00;;
7761;SDS011;3925;48.636;9.516;2023-05-14T01:02:38;10.07;;;9.20;;
7761;SDS011;3925;48.636;9.516;2023-05-14T01:05:05;10.57;;;9.57;;
7761;SDS011;3925;48.636;9.516;2023-05-14T01:07:36;10.03;;;9.13;;
7761;SDS011;3925;48.636;9.516;2023-05-14T01:10:10;10.13;;;9.33;;
7761;SDS011;3925;48.636;9.516;2023-05-14T01:12:42;10.27;;;9.40;;
7761;SDS011;3925;48.636;9.516;2023-05-14T01:15:16;10.03;;;9.13;;
7761;SDS011;3925;48.636;9.516;2023-05-14T01:17:47;9.53;;;8.80;;
7761;SDS011;3925;48.636;9.516;2023-05-14T01:20:17;10.00;;;9.00;;
7761;SDS011;3925;48.636;9.516;2023-05-14T01:22:45;9.50;;;8.70;;
7761;SDS011;3925;48.636;9.516;2023-05-14T01:25:12;10.43;;;9.33;;
7761;SDS011;3925;48.636;9.516;2023-05-14T01:27:40;10.83;;;9.90;;
7761;SDS011;3925;48.636;9.516;2023-05-14T01:30:12;10.70;;;9.80;;
7761;SDS011;3925;48.636;9.516;2023-05-14T01:32:47;11.90;;;10.70;;
7761;SDS011;3925;48.636;9.516;2023-05-14T01:35:16;9.70;;;8.80;;
7761;SDS011;3925;48.636;9.516;2023-05-14T01:37:45;10.27;;;9.37;;
7761;SDS011;3925;48.636;9.516;2023-05-14T01:40:13;10.60;;;9.70;;
7761;SDS011;3925;48.636;9.516;2023-05-14T01:42:40;9.80;;;8.50;;
7761;SDS011;3925;48.636;9.516;2023-05-14T01:45:08;10.77;;;9.77;;
7761;SDS011;3925;48.636;9.516;2023-05-14T01:47:35;8.63;;;7.93;;
7761;SDS011;3925;48.636;9.516;2023-05-14T01:50:02;8.50;;;7.80;;
7761;SDS011;3925;48.636;9.516;2023-05-14T01:52:30;9.77;;;8.83;;
7761;SDS011;3925;48.636;9.516;2023-05-14T01:54:58;9.63;;;7.97;;
7761;SDS011;3925;48.636;9.516;2023-05-14T01:57:25;9.70;;;8.80;;
7761;SDS011;3925;48.636;9.516;2023-05-14T01:59:51;8.60;;;7.87;;
7761;SDS011;3925;48.636;9.516;2023-05-14T02:02:18;11.23;;;10.13;;
7761;SDS011;3925;48.636;9.516;2023-05-14T02:04:45;12.37;;;11.27;;
7761;SDS011;3925;48.636;9.516;2023-05-14T02:07:12;11.70;;;10.70;;
7761;SDS011;3925;48.636;9.516;2023-05-14T02:09:39;12.40;;;11.20;;
7761;SDS011;3925;48.636;9.516;2023-05-14T02:12:08;11.40;;;10.30;;
7761;SDS011;3925;48.636;9.516;2023-05-14T02:14:35;10.73;;;9.73;;
7761;SDS011;3925;48.636;9.516;2023-05-14T02:17:02;9.07;;;8.20;;
7761;SDS011;3925;48.636;9.516;2023-05-14T02:19:29;10.23;;;9.33;;
7761;SDS011;3925;48.636;9.516;2023-05-14T02:21:57;10.47;;;9.60;;
7761;SDS011;3925;48.636;9.516;2023-05-14T02:24:26;10.03;;;9.13;;
7761;SDS011;3925;48.636;9.516;2023-05-14T02:26:53;9.80;;;9.00;;
7761;SDS011;3925;48.636;9.516;2023-05-14T02:29:21;9.10;;;8.20;;
7761;SDS011;3925;48.636;9.516;2023-05-14T02:31:48;8.73;;;7.80;;
7761;SDS011;3925;48.636;9.516;2023-05-14T02:34:15;8.77;;;7.97;;
7761;SDS011;3925;48.636;9.516;2023-05-14T02:36:42;8.03;;;7.30;;
7761;SDS011;3925;48.636;9.516;2023-05-14T02:39:09;8.73;;;7.93;;
7761;SDS011;3925;48.636;9.516;2023-05-14T02:41:35;8.40;;;7.60;;
7761;SDS011;3925;48.636;9.516;2023-05-14T02:44:02;7.40;;;6.77;;
7761;SDS011;3925;48.636;9.516;2023-05-14T02:46:31;8.00;;;7.40;;
7761;SDS011;3925;48.636;9.516;2023-05-14T02:48:57;7.60;;;7.00;;
7761;SDS011;3925;48.636;9.516;2023-05-14T02:51:24;7.67;;;7.07;;
7761;SDS011;3925;48.636;9.516;2023-05-14T02:53:52;7.70;;;7.10;;
7761;SDS011;3925;48.636;9.516;2023-05-14T02:56:19;6.47;;;5.97;;
7761;SDS011;3925;48.636;9.516;2023-05-14T02:58:46;8.13;;;7.43;;
7761;SDS011;3925;48.636;9.516;2023-05-14T03:01:13;7.93;;;7.33;;
7761;SDS011;3925;48.636;9.516;2023-05-14T03:03:41;7.27;;;6.70;;
7761;SDS011;3925;48.636;9.516;2023-05-14T03:06:08;6.90;;;6.30;;
7761;SDS011;3925;48.636;9.516;2023-05-14T03:08:35;8.47;;;7.67;;
7761;SDS011;3925;48.636;9.516;2023-05-14T03:11:01;7.43;;;6.53;;
7761;SDS011;3925;48.636;9.516;2023-05-14T03:13:28;7.50;;;6.80;;
7761;SDS011;3925;48.636;9.516;2023-05-14T03:15:55;5.90;;;5.40;;
7761;SDS011;3925;48.636;9.516;2023-05-14T03:18:22;7.47;;;6.80;;
7761;SDS011;3925;48.636;9.516;2023-05-14T03:20:50;8.50;;;7.43;;
7761;SDS011;3925;48.636;9.516;2023-05-14T03:23:17;7.43;;;6.73;;
7761;SDS011;3925;48.636;9.516;2023-05-14T03:25:44;7.43;;;6.80;;
7761;SDS011;3925;48.636;9.516;2023-05-14T03:28:10;8.93;;;8.23;;
7761;SDS011;3925;48.636;9.516;2023-05-14T03:30:37;7.40;;;6.80;;
7761;SDS011;3925;48.636;9.516;2023-05-14T03:33:04;7.33;;;6.80;;
7761;SDS011;3925;48.636;9.516;2023-05-14T03:35:31;8.30;;;7.53;;
7761;SDS011;3925;48.636;9.516;2023-05-14T03:37:59;7.90;;;7.30;;
7761;SDS011;3925;48.636;9.516;2023-05-14T03:40:26;7.90;;;7.30;;
7761;SDS011;3925;48.636;9.516;2023-05-14T03:42:52;7.63;;;7.03;;
7761;SDS011;3925;48.636;9.516;2023-05-14T03:45:20;8.60;;;7.80;;
7761;SDS011;3925;48.636;9.516;2023-05-14T03:47:46;8.00;;;7.40;;
7761;SDS011;3925;48.636;9.516;2023-05-14T03:50:13;7.10;;;6.50;;
7761;SDS011;3925;48.636;9.516;2023-05-14T03:52:40;7.53;;;6.80;;
7761;SDS011;3925;48.636;9.516;2023-05-14T03:55:09;7.73;;;7.07;;
7761;SDS011;3925;48.636;9.516;2023-05-14T03:57:36;7.53;;;6.83;;
7761;SDS011;3925;48.636;9.516;2023-05-14T04:00:03;8.43;;;7.63;;
7761;SDS011;3925;48.636;9.516;2023-05-14T04:02:30;8.67;;;7.87;;
7761;SDS011;3925;48.636;9.516;2023-05-14T04:04:57;8.50;;;7.50;;
7761;SDS011;3925;48.636;9.516;2023-05-14T04:07:24;8.70;;;8.00;;
7761;SDS011;3925;48.636;9.516;2023-05-14T04:09:50;7.70;;;7.10;;
7761;SDS011;3925;48.636;9.516;2023-05-14T04:12:18;8.73;;;8.03;;
7761;SDS011;3925;48.636;9.516;2023-05-14T04:14:46;8.73;;;8.03;;
7761;SDS011;3925;48.636;9.516;2023-05-14T04:17:12;8.90;;;8.20;;
7761;SDS011;3925;48.636;9.516;2023-05-14T04:19:39;8.17;;;7.47;;
7761;SDS011;3925;48.636;9.516;2023-05-14T04:22:06;9.60;;;8.80;;
7761;SDS011;3925;48.636;9.516;2023-05-14T04:24:33;8.57;;;7.87;;
7761;SDS011;3925;48.636;9.516;2023-05-14T04:26:59;8.50;;;7.80;;
7761;SDS011;3925;48.636;9.516;2023-05-14T04:29:28;9.63;;;8.40;;
7761;SDS011;3925;48.636;9.516;2023-05-14T04:31:55;8.57;;;7.87;;
7761;SDS011;3925;48.636;9.516;2023-05-14T04:34:21;8.13;;;7.53;;
7761;SDS011;3925;48.636;9.516;2023-05-14T04:36:48;8.43;;;7.73;;
7761;SDS011;3925;48.636;9.516;2023-05-14T04:39:15;7.70;;;7.10;;
7761;SDS011;3925;48.636;9.516;2023-05-14T04:41:43;8.67;;;7.87;;
7761;SDS011;3925;48.636;9.516;2023-05-14T04:44:11;10.70;;;8.20;;
7761;SDS011;3925;48.636;9.516;2023-05-14T04:46:39;8.67;;;7.90;;
7761;SDS011;3925;48.636;9.516;2023-05-14T04:49:06;8.60;;;7.90;;
7761;SDS011;3925;48.636;9.516;2023-05-14T04:51:33;8.30;;;7.70;;
7761;SDS011;3925;48.636;9.516;2023-05-14T04:54:00;8.73;;;7.83;;
7761;SDS011;3925;48.636;9.516;2023-05-14T04:56:26;9.33;;;8.43;;
7761;SDS011;3925;48.636;9.516;2023-05-14T04:58:53;8.83;;;8.03;;
7761;SDS011;3925;48.636;9.516;2023-05-14T05:01:20;8.10;;;7.30;;
7761;SDS011;3925;48.636;9.516;2023-05-14T05:03:48;8.70;;;7.90;;
7761;SDS011;3925;48.636;9.516;2023-05-14T05:06:16;9.17;;;8.37;;
7761;SDS011;3925;48.636;9.516;2023-05-14T05:08:43;12.17;;;7.73;;
7761;SDS011;3925;48.636;9.516;2023-05-14T05:11:10;8.67;;;7.90;;
7761;SDS011;3925;48.636;9.516;2023-05-14T05:13:36;8.47;;;7.60;;
7761;SDS011;3925;48.636;9.516;2023-05-14T05:16:04;9.20;;;8.40;;
7761;SDS011;3925;48.636;9.516;2023-05-14T05:18:31;9.77;;;8.87;;
7761;SDS011;3925;48.636;9.516;2023-05-14T05:20:59;9.67;;;8.70;;
7761;SDS011;3925;48.636;9.516;2023-05-14T05:23:26;7.93;;;7.13;;
7761;SDS011;3925;48.636;9.516;2023-05-14T05:25:53;8.57;;;7.80;;
7761;SDS011;3925;48.636;9.516;2023-05-14T05:28:19;9.00;;;8.20;;
7761;SDS011;3925;48.636;9.516;2023-05-14T05:30:46;8.90;;;8.03;;
7761;SDS011;3925;48.636;9.516;2023-05-14T05:33:13;8.93;;;8.00;;
7761;SDS011;3925;48.636;9.516;2023-05-14T05:35:40;11.20;;;10.20;;
7761;SDS011;3925;48.636;9.516;2023-05-14T05:38:09;9.27;;;8.50;;
7761;SDS011;3925;48.636;9.516;2023-05-14T05:40:36;7.60;;;7.00;;
7761;SDS011;3925;48.636;9.516;2023-05-14T05:43:03;10.60;;;9.70;;
7761;SDS011;3925;48.636;9.516;2023-05-14T05:45:30;9.73;;;8.83;;
7761;SDS011;3925;48.636;9.516;2023-05-14T05:47:57;10.27;;;9.37;;
7761;SDS011;3925;48.636;9.516;2023-05-14T05:50:24;8.63;;;7.93;;
7761;SDS011;3925;48.636;9.516;2023-05-14T05:52:51;8.03;;;7.43;;
7761;SDS011;3925;48.636;9.516;2023-05-14T05:55:20;9.30;;;8.27;;
7761;SDS011;3925;48.636;9.516;2023-05-14T05:57:46;9.17;;;8.23;;
7761;SDS011;3925;48.636;9.516;2023-05-14T06:00:13;8.97;;;8.17;;
7761;SDS011;3925;48.636;9.516;2023-05-14T06:02:41;8.33;;;7.67;;
7761;SDS011;3925;48.636;9.516;2023-05-14T06:05:08;9.07;;;8.17;;
7761;SDS011;3925;48.636;9.516;2023-05-14T06:07:35;10.13;;;9.23;;
7761;SDS011;3925;48.636;9.516;2023-05-14T06:10:02;9.57;;;8.47;;
7761;SDS011;3925;48.636;9.516;2023-05-14T06:12:31;9.60;;;8.60;;
7761;SDS011;3925;48.636;9.516;2023-05-14T06:14:58;8.53;;;7.83;;
7761;SDS011;3925;48.636;9.516;2023-05-14T06:17:25;8.87;;;8.07;;
7761;SDS011;3925;48.636;9.516;2023-05-14T06:19:52;9.60;;;8.70;;
7761;SDS011;3925;48.636;9.516;2023-05-14T06:22:19;9.20;;;8.40;;
7761;SDS011;3925;48.636;9.516;2023-05-14T06:24:46;8.47;;;7.77;;
7761;SDS011;3925;48.636;9.516;2023-05-14T06:27:13;9.20;;;8.50;;
7761;SDS011;3925;48.636;9.516;2023-05-14T06:29:41;9.97;;;9.17;;
7761;SDS011;3925;48.636;9.516;2023-05-14T06:32:08;9.87;;;8.47;;
7761;SDS011;3925;48.636;9.516;2023-05-14T06:34:38;9.17;;;8.37;;
7761;SDS011;3925;48.636;9.516;2023-05-14T06:37:04;9.63;;;8.73;;
7761;SDS011;3925;48.636;9.516;2023-05-14T06:39:31;20.50;;;18.80;;
7761;SDS011;3925;48.636;9.516;2023-05-14T06:41:58;10.57;;;9.67;;
7761;SDS011;3925;48.636;9.516;2023-05-14T06:44:26;9.00;;;8.27;;
7761;SDS011;3925;48.636;9.516;2023-05-14T06:46:54;10.60;;;9.67;;
7761;SDS011;3925;48.636;9.516;2023-05-14T06:49:21;9.53;;;8.63;;
7761;SDS011;3925;48.636;9.516;2023-05-14T06:51:48;8.00;;;7.37;;
7761;SDS011;3925;48.636;9.516;2023-05-14T06:54:16;9.70;;;8.77;;
7761;SDS011;3925;48.636;9.516;2023-05-14T06:56:44;8.67;;;7.97;;
7761;SDS011;3925;48.636;9.516;2023-05-14T06:59:11;10.23;;;9.20;;
7761;SDS011;3925;48.636;9.516;2023-05-14T07:01:38;10.37;;;9.30;;
7761;SDS011;3925;48.636;9.516;2023-05-14T07:04:06;8.60;;;7.80;;
7761;SDS011;3925;48.636;9.516;2023-05-14T07:06:33;8.93;;;8.07;;
7761;SDS011;3925;48.636;9.516;2023-05-14T07:09:00;9.30;;;8.40;;
7761;SDS011;3925;48.636;9.516;2023-05-14T07:11:27;9.83;;;8.93;;
7761;SDS011;3925;48.636;9.516;2023-05-14T07:13:54;10.73;;;8.73;;
7761;SDS011;3925;48.636;9.516;2023-05-14T07:16:21;10.17;;;9.20;;
7761;SDS011;3925;48.636;9.516;2023-05-14T07:18:48;9.40;;;8.60;;
7761;SDS011;3925;48.636;9.516;2023-05-14T07:21:16;9.20;;;8.50;;
7761;SDS011;3925;48.636;9.516;2023-05-14T07:23:43;9.20;;;8.27;;
7761;SDS011;3925;48.636;9.516;2023-05-14T07:26:10;9.60;;;8.90;;
7761;SDS011;3925;48.636;9.516;2023-05-14T07:28:36;9.37;;;8.47;;
7761;SDS011;3925;48.636;9.516;2023-05-14T07:31:03;9.67;;;8.97;;
7761;SDS011;3925;48.636;9.516;2023-05-14T07:33:32;10.00;;;9.10;;
7761;SDS011;3925;48.636;9.516;2023-05-14T07:35:59;9.10;;;8.30;;
7761;SDS011;3925;48.636;9.516;2023-05-14T07:38:28;9.10;;;8.40;;
7761;SDS011;3925;48.636;9.516;2023-05-14T07:40:55;9.27;;;8.57;;
7761;SDS011;3925;48.636;9.516;2023-05-14T07:43:22;8.80;;;8.10;;
7761;SDS011;3925;48.636;9.516;2023-05-14T07:45:49;9.97;;;8.80;;
7761;SDS011;3925;48.636;9.516;2023-05-14T07:48:16;9.60;;;8.63;;
7761;SDS011;3925;48.636;9.516;2023-05-14T07:50:43;8.77;;;7.87;;
7761;SDS011;3925;48.636;9.516;2023-05-14T07:53:10;9.97;;;7.70;;
7761;SDS011;3925;48.636;9.516;2023-05-14T07:55:38;9.17;;;8.37;;
7761;SDS011;3925;48.636;9.516;2023-05-14T07:58:06;9.17;;;8.40;;
7761;SDS011;3925;48.636;9.516;2023-05-14T08:00:32;8.97;;;8.17;;
7761;SDS011;3925;48.636;9.516;2023-05-14T08:03:00;8.80;;;8.00;;
7761;SDS011;3925;48.636;9.516;2023-05-14T08:05:26;8.97;;;8.27;;
7761;SDS011;3925;48.636;9.516;2023-05-14T08:07:53;9.97;;;9.17;;
7761;SDS011;3925;48.636;9.516;2023-05-14T08:10:20;9.80;;;9.03;;
7761;SDS011;3925;48.636;9.516;2023-05-14T08:12:48;9.10;;;8.40;;
7761;SDS011;3925;48.636;9.516;2023-05-14T08:15:15;10.43;;;9.37;;
7761;SDS011;3925;48.636;9.516;2023-05-14T08:17:42;8.67;;;7.97;;
7761;SDS011;3925;48.636;9.516;2023-05-14T08:20:09;8.73;;;7.87;;
7761;SDS011;3925;48.636;9.516;2023-05-14T08:22:36;9.57;;;8.80;;
7761;SDS011;3925;48.636;9.516;2023-05-14T08:25:04;9.50;;;8.70;;
7761;SDS011;3925;48.636;9.516;2023-05-14T08:27:31;8.97;;;8.27;;
7761;SDS011;3925;48.636;9.516;2023-05-14T08:30:00;11.13;;;10.23;;
7761;SDS011;3925;48.636;9.516;2023-05-14T08:32:26;9.00;;;8.30;;
7761;SDS011;3925;48.636;9.516;2023-05-14T08:34:53;10.17;;;9.27;;
7761;SDS011;3925;48.636;9.516;2023-05-14T08:37:20;10.50;;;9.70;;
7761;SDS011;3925;48.636;9.516;2023-05-14T08:39:47;10.10;;;9.33;;
7761;SDS011;3925;48.636;9.516;2023-05-14T08:42:14;8.33;;;7.70;;
7761;SDS011;3925;48.636;9.516;2023-05-14T08:44:46;9.00;;;8.30;;
7761;SDS011;3925;48.636;9.516;2023-05-14T08:47:17;10.50;;;9.70;;
7761;SDS011;3925;48.636;9.516;2023-05-14T08:49:49;10.40;;;8.70;;
7761;SDS011;3925;48.636;9.516;2023-05-14T08:52:20;8.70;;;8.00;;
7761;SDS011;3925;48.636;9.516;2023-05-14T08:54:48;9.60;;;8.80;;
7761;SDS011;3925;48.636;9.516;2023-05-14T08:57:16;9.43;;;8.63;;
7761;SDS011;3925;48.636;9.516;2023-05-14T08:59:45;9.63;;;8.83;;
7761;SDS011;3925;48.636;9.516;2023-05-14T09:02:12;9.80;;;9.00;;
7761;SDS011;3925;48.636;9.516;2023-05-14T09:04:42;9.80;;;9.07;;
7761;SDS011;3925;48.636;9.516;2023-05-14T09:07:10;9.37;;;8.67;;
7761;SDS011;3925;48.636;9.516;2023-05-14T09:09:37;10.63;;;9.63;;
7761;SDS011;3925;48.636;9.516;2023-05-14T09:12:04;9.07;;;8.27;;
7761;SDS011;3925;48.636;9.516;2023-05-14T09:14:32;10.20;;;9.40;;
7761;SDS011;3925;48.636;9.516;2023-05-14T09:16:59;9.03;;;8.33;;
7761;SDS011;3925;48.636;9.516;2023-05-14T09:19:25;10.20;;;9.40;;
7761;SDS011;3925;48.636;9.516;2023-05-14T09:21:55;8.93;;;8.23;;
7761;SDS011;3925;48.636;9.516;2023-05-14T09:24:24;8.40;;;7.80;;
7761;SDS011;3925;48.636;9.516;2023-05-14T09:26:54;8.20;;;7.50;;
7761;SDS011;3925;48.636;9.516;2023-05-14T09:29:22;9.70;;;8.90;;
7761;SDS011;3925;48.636;9.516;2023-05-14T09:31:50;8.30;;;7.70;;
7761;SDS011;3925;48.636;9.516;2023-05-14T09:34:24;8.13;;;7.53;;
7761;SDS011;3925;48.636;9.516;2023-05-14T09:36:54;8.30;;;7.60;;
7761;SDS011;3925;48.636;9.516;2023-05-14T09:39:22;8.70;;;8.00;;
7761;SDS011;3925;48.636;9.516;2023-05-14T09:41:50;7.93;;;7.33;;
7761;SDS011;3925;48.636;9.516;2023-05-14T09:44:17;8.57;;;7.77;;
7761;SDS011;3925;48.636;9.516;2023-05-14T09:46:44;8.00;;;7.30;;
7761;SDS011;3925;48.636;9.516;2023-05-14T09:49:11;7.30;;;6.70;;
7761;SDS011;3925;48.636;9.516;2023-05-14T09:51:38;7.93;;;7.23;;
7761;SDS011;3925;48.636;9.516;2023-05-14T09:54:07;5.50;;;5.10;;
7761;SDS011;3925;48.636;9.516;2023-05-14T09:56:34;10.27;;;5.90;;
7761;SDS011;3925;48.636;9.516;2023-05-14T09:59:03;6.23;;;5.73;;
7761;SDS011;3925;48.636;9.516;2023-05-14T10:01:31;7.60;;;7.10;;
7761;SDS011;3925;48.636;9.516;2023-05-14T10:03:58;7.17;;;6.67;;
7761;SDS011;3925;48.636;9.516;2023-05-14T10:06:26;6.10;;;5.50;;
7761;SDS011;3925;48.636;9.516;2023-05-14T10:08:56;6.00;;;5.50;;
7761;SDS011;3925;48.636;9.516;2023-05-14T10:11:29;7.50;;;6.80;;
7761;SDS011;3925;48.636;9.516;2023-05-14T10:14:00;7.80;;;7.20;;
7761;SDS011;3925;48.636;9.516;2023-05-14T10:16:32;6.33;;;5.73;;
7761;SDS011;3925;48.636;9.516;2023-05-14T10:19:03;6.43;;;5.80;;
7761;SDS011;3925;48.636;9.516;2023-05-14T10:21:33;5.50;;;5.10;;
7761;SDS011;3925;48.636;9.516;2023-05-14T10:24:01;4.73;;;4.33;;
7761;SDS011;3925;48.636;9.516;2023-05-14T10:26:30;6.10;;;5.70;;
7761;SDS011;3925;48.636;9.516;2023-05-14T10:28:58;14.37;;;13.23;;
7761;SDS011;3925;48.636;9.516;2023-05-14T10:36:59;4.93;;;4.53;;
7761;SDS011;3925;48.636;9.516;2023-05-14T10:39:39;5.67;;;5.23;;
7761;SDS011;3925;48.636;9.516;2023-05-14T10:42:09;4.97;;;4.47;;
7761;SDS011;3925;48.636;9.516;2023-05-14T10:44:38;4.97;;;4.67;;
7761;SDS011;3925;48.636;9.516;2023-05-14T10:47:11;4.53;;;4.23;;
7761;SDS011;3925;48.636;9.516;2023-05-14T10:49:37;4.83;;;4.43;;
7761;SDS011;3925;48.636;9.516;2023-05-14T10:52:06;5.20;;;4.90;;
7761;SDS011;3925;48.636;9.516;2023-05-14T10:54:34;5.77;;;5.27;;
7761;SDS011;3925;48.636;9.516;2023-05-14T10:57:01;5.40;;;4.90;;
7761;SDS011;3925;48.636;9.516;2023-05-14T10:59:30;5.17;;;4.77;;
7761;SDS011;3925;48.636;9.516;2023-05-14T11:01:59;5.40;;;5.00;;
7761;SDS011;3925;48.636;9.516;2023-05-14T11:04:30;5.60;;;5.10;;
7761;SDS011;3925;48.636;9.516;2023-05-14T11:06:57;13.17;;;11.80;;
7761;SDS011;3925;48.636;9.516;2023-05-14T11:09:25;5.70;;;5.30;;
7761;SDS011;3925;48.636;9.516;2023-05-14T11:11:52;7.17;;;5.13;;
7761;SDS011;3925;48.636;9.516;2023-05-14T11:14:19;4.63;;;4.33;;
7761;SDS011;3925;48.636;9.516;2023-05-14T11:16:47;3.80;;;3.50;;
7761;SDS011;3925;48.636;9.516;2023-05-14T11:19:15;3.53;;;3.30;;
7761;SDS011;3925;48.636;9.516;2023-05-14T11:21:47;3.97;;;3.70;;
7761;SDS011;3925;48.636;9.516;2023-05-14T11:24:13;3.10;;;2.90;;
7761;SDS011;3925;48.636;9.516;2023-05-14T11:26:40;3.60;;;3.27;;
7761;SDS011;3925;48.636;9.516;2023-05-14T11:29:07;3.60;;;3.40;;
7761;SDS011;3925;48.636;9.516;2023-05-14T11:31:35;8.77;;;7.77;;
7761;SDS011;3925;48.636;9.516;2023-05-14T11:34:04;4.10;;;3.80;;
7761;SDS011;3925;48.636;9.516;2023-05-14T11:36:35;5.73;;;5.33;;
7761;SDS011;3925;48.636;9.516;2023-05-14T11:39:02;4.40;;;4.00;;
7761;SDS011;3925;48.636;9.516;2023-05-14T11:41:29;4.50;;;4.20;;
7761;SDS011;3925;48.636;9.516;2023-05-14T11:43:55;4.27;;;3.97;;
7761;SDS011;3925;48.636;9.516;2023-05-14T11:46:23;4.63;;;3.90;;
7761;SDS011;3925;48.636;9.516;2023-05-14T11:48:50;3.70;;;3.37;;
7761;SDS011;3925;48.636;9.516;2023-05-14T11:51:18;3.87;;;2.90;;
7761;SDS011;3925;48.636;9.516;2023-05-14T11:53:47;3.57;;;3.37;;
7761;SDS011;3925;48.636;9.516;2023-05-14T11:56:13;2.80;;;2.60;;
7761;SDS011;3925;48.636;9.516;2023-05-14T11:58:45;3.00;;;2.80;;
7761;SDS011;3925;48.636;9.516;2023-05-14T12:01:13;2.90;;;2.70;;
7761;SDS011;3925;48.636;9.516;2023-05-14T12:03:40;3.40;;;3.10;;
7761;SDS011;3925;48.636;9.516;2023-05-14T12:06:07;3.20;;;2.90;;
7761;SDS011;3925;48.636;9.516;2023-05-14T12:08:35;2.80;;;2.53;;
7761;SDS011;3925;48.636;9.516;2023-05-14T12:11:02;2.37;;;2.27;;
7761;SDS011;3925;48.636;9.516;2023-05-14T12:13:29;2.80;;;2.60;;
7761;SDS011;3925;48.636;9.516;2023-05-14T12:15:57;3.47;;;3.27;;
7761;SDS011;3925;48.636;9.516;2023-05-14T12:18:26;2.87;;;2.67;;
7761;SDS011;3925;48.636;9.516;2023-05-14T12:20:54;3.23;;;3.03;;
7761;SDS011;3925;48.636;9.516;2023-05-14T12:23:24;2.50;;;2.40;;
7761;SDS011;3925;48.636;9.516;2023-05-14T12:25:53;2.93;;;2.73;;
7761;SDS011;3925;48.636;9.516;2023-05-14T12:28:21;3.40;;;2.80;;
7761;SDS011;3925;48.636;9.516;2023-05-14T12:30:54;7.43;;;3.30;;
7761;SDS011;3925;48.636;9.516;2023-05-14T12:33:21;4.20;;;3.80;;
7761;SDS011;3925;48.636;9.516;2023-05-14T12:35:50;3.50;;;3.20;;
7761;SDS011;3925;48.636;9.516;2023-05-14T12:38:18;3.20;;;2.87;;
7761;SDS011;3925;48.636;9.516;2023-05-14T12:40:45;3.00;;;2.80;;
7761;SDS011;3925;48.636;9.516;2023-05-14T12:43:13;2.63;;;2.43;;
7761;SDS011;3925;48.636;9.516;2023-05-14T12:45:40;3.40;;;3.20;;
7761;SDS011;3925;48.636;9.516;2023-05-14T12:48:06;4.07;;;3.67;;
7761;SDS011;3925;48.636;9.516;2023-05-14T12:50:33;3.27;;;3.07;;
7761;SDS011;3925;48.636;9.516;2023-05-14T12:53:00;3.80;;;3.40;;
7761;SDS011;3925;48.636;9.516;2023-05-14T12:55:27;3.67;;;3.40;;
7761;SDS011;3925;48.636;9.516;2023-05-14T12:57:54;2.63;;;2.43;;
7761;SDS011;3925;48.636;9.516;2023-05-14T13:00:23;3.00;;;2.80;;
7761;SDS011;3925;48.636;9.516;2023-05-14T13:02:51;3.20;;;3.00;;
7761;SDS011;3925;48.636;9.516;2023-05-14T13:05:17;3.40;;;3.10;;
7761;SDS011;3925;48.636;9.516;2023-05-14T13:07:44;3.50;;;3.30;;
7761;SDS011;3925;48.636;9.516;2023-05-14T13:10:11;4.17;;;3.87;;
7761;SDS011;3925;48.636;9.516;2023-05-14T13:12:38;3.37;;;3.17;;
7761;SDS011;3925;48.636;9.516;2023-05-14T13:15:05;3.20;;;3.00;;
7761;SDS011;3925;48.636;9.516;2023-05-14T13:17:34;3.00;;;2.80;;
7761;SDS011;3925;48.636;9.516;2023-05-14T13:20:01;3.07;;;2.87;;
7761;SDS011;3925;48.636;9.516;2023-05-14T13:22:29;2.80;;;2.60;;
7761;SDS011;3925;48.636;9.516;2023-05-14T13:24:56;3.10;;;2.90;;
7761;SDS011;3925;48.636;9.516;2023-05-14T13:27:23;3.13;;;2.93;;
7761;SDS011;3925;48.636;9.516;2023-05-14T13:29:50;3.23;;;3.03;;
7761;SDS011;3925;48.636;9.516;2023-05-14T13:32:18;2.70;;;2.50;;
7761;SDS011;3925;48.636;9.516;2023-05-14T13:34:46;3.50;;;3.27;;
7761;SDS011;3925;48.636;9.516;2023-05-14T13:37:13;3.30;;;3.10;;
7761;SDS011;3925;48.636;9.516;2023-05-14T13:39:40;2.80;;;2.60;;
7761;SDS011;3925;48.636;9.516;2023-05-14T13:42:07;3.00;;;2.80;;
7761;SDS011;3925;48.636;9.516;2023-05-14T13:44:33;3.07;;;2.53;;
7761;SDS011;3925;48.636;9.516;2023-05-14T13:47:00;3.17;;;2.90;;
7761;SDS011;3925;48.636;9.516;2023-05-14T13:49:28;2.67;;;2.47;;
7761;SDS011;3925;48.636;9.516;2023-05-14T13:51:56;3.20;;;3.00;;
7761;SDS011;3925;48.636;9.516;2023-05-14T13:54:23;2.57;;;2.37;;
7761;SDS011;3925;48.636;9.516;2023-05-14T13:56:50;3.00;;;2.67;;
7761;SDS011;3925;48.636;9.516;2023-05-14T13:59:16;3.00;;;2.80;;
7761;SDS011;3925;48.636;9.516;2023-05-14T14:01:44;3.17;;;2.90;;
7761;SDS011;3925;48.636;9.516;2023-05-14T14:04:12;2.83;;;2.50;;
7761;SDS011;3925;48.636;9.516;2023-05-14T14:06:40;2.57;;;2.37;;
7761;SDS011;3925;48.636;9.516;2023-05-14T14:09:08;3.27;;;2.73;;
7761;SDS011;3925;48.636;9.516;2023-05-14T14:11:37;2.80;;;2.60;;
7761;SDS011;3925;48.636;9.516;2023-05-14T14:14:04;3.23;;;2.97;;
7761;SDS011;3925;48.636;9.516;2023-05-14T14:16:31;2.90;;;2.70;;
7761;SDS011;3925;48.636;9.516;2023-05-14T14:18:57;3.00;;;2.70;;
7761;SDS011;3925;48.636;9.516;2023-05-14T14:21:24;2.90;;;2.70;;
7761;SDS011;3925;48.636;9.516;2023-05-14T14:23:51;2.63;;;2.43;;
7761;SDS011;3925;48.636;9.516;2023-05-14T14:26:19;2.73;;;2.53;;
7761;SDS011;3925;48.636;9.516;2023-05-14T14:28:46;2.43;;;2.33;;
7761;SDS011;3925;48.636;9.516;2023-05-14T14:31:13;2.43;;;2.33;;
7761;SDS011;3925;48.636;9.516;2023-05-14T14:33:41;2.60;;;2.40;;
7761;SDS011;3925;48.636;9.516;2023-05-14T14:36:07;2.60;;;2.50;;
7761;SDS011;3925;48.636;9.516;2023-05-14T14:38:35;2.50;;;2.30;;
7761;SDS011;3925;48.636;9.516;2023-05-14T14:41:03;2.10;;;2.00;;
7761;SDS011;3925;48.636;9.516;2023-05-14T14:43:33;2.47;;;2.27;;
7761;SDS011;3925;48.636;9.516;2023-05-14T14:46:00;2.37;;;2.17;;
7761;SDS011;3925;48.636;9.516;2023-05-14T14:48:27;2.93;;;2.73;;
7761;SDS011;3925;48.636;9.516;2023-05-14T14:50:58;2.37;;;2.27;;
7761;SDS011;3925;48.636;9.516;2023-05-14T14:53:26;2.90;;;2.70;;
7761;SDS011;3925;48.636;9.516;2023-05-14T14:55:53;2.90;;;2.70;;
7761;SDS011;3925;48.636;9.516;2023-05-14T14:58:19;2.77;;;2.47;;
7761;SDS011;3925;48.636;9.516;2023-05-14T15:00:48;3.63;;;3.00;;
7761;SDS011;3925;48.636;9.516;2023-05-14T15:03:17;3.47;;;3.23;;
7761;SDS011;3925;48.636;9.516;2023-05-14T15:05:44;3.63;;;3.43;;
7761;SDS011;3925;48.636;9.516;2023-05-14T15:08:11;6.90;;;3.10;;
7761;SDS011;3925;48.636;9.516;2023-05-14T15:10:38;3.30;;;3.00;;
7761;SDS011;3925;48.636;9.516;2023-05-14T15:13:06;4.23;;;3.50;;
7761;SDS011;3925;48.636;9.516;2023-05-14T15:15:34;3.90;;;3.60;;
7761;SDS011;3925;48.636;9.516;2023-05-14T15:18:03;3.87;;;3.57;;
7761;SDS011;3925;48.636;9.516;2023-05-14T15:20:30;3.00;;;2.80;;